createdAt,value
2017-12-16T00:00:04.524Z,0
2017-12-16T00:05:03.093Z,0
2017-12-16T00:10:02.915Z,0
2017-12-16T00:15:03.514Z,0
2017-12-16T00:20:03.155Z,0
2017-12-16T00:25:03.591Z,0
2017-12-16T00:30:03.152Z,0
2017-12-16T00:35:03.561Z,0
2017-12-16T00:40:03.162Z,0
2017-12-16T00:45:03.604Z,0
2017-12-16T00:50:03.336Z,0
2017-12-16T00:55:02.913Z,0
2017-12-16T01:00:03.551Z,0
2017-12-16T01:05:03.130Z,0
2017-12-16T01:10:02.718Z,0
2017-12-16T01:15:03.406Z,0
2017-12-16T01:20:03.006Z,0
2017-12-16T01:25:03.415Z,0
2017-12-16T01:30:02.901Z,0
2017-12-16T01:35:03.420Z,0
2017-12-16T01:40:03.096Z,0
2017-12-16T01:45:03.582Z,0
2017-12-16T01:50:03.106Z,0
2017-12-16T01:55:02.692Z,0
2017-12-16T02:00:03.097Z,0
2017-12-16T02:05:03.210Z,0
2017-12-16T02:10:02.960Z,0
2017-12-16T02:15:03.537Z,0
2017-12-16T02:20:03.157Z,0
2017-12-16T02:25:02.689Z,1
2017-12-16T02:30:03.251Z,3
2017-12-16T02:35:02.918Z,3
2017-12-16T02:40:03.619Z,1
2017-12-16T02:45:03.274Z,4
2017-12-16T02:50:02.906Z,1
2017-12-16T02:55:03.386Z,4
2017-12-16T03:00:02.972Z,2
2017-12-16T03:05:03.425Z,2
2017-12-16T03:10:03.143Z,3
2017-12-16T03:15:02.615Z,2
2017-12-16T03:20:03.136Z,2
2017-12-16T03:25:02.754Z,2
2017-12-16T03:30:03.511Z,1
2017-12-16T03:35:03.284Z,3
2017-12-16T03:40:02.866Z,2
2017-12-16T03:45:03.370Z,2
2017-12-16T03:50:02.878Z,2
2017-12-16T03:55:03.398Z,0
2017-12-16T04:00:02.856Z,2
2017-12-16T04:05:03.477Z,0
2017-12-16T04:10:02.891Z,0
2017-12-16T04:15:03.427Z,0
2017-12-16T04:20:03.167Z,0
2017-12-16T04:25:02.646Z,0
2017-12-16T04:30:03.172Z,0
2017-12-16T04:35:02.795Z,0
2017-12-16T04:40:03.286Z,0
2017-12-16T04:45:02.916Z,2
2017-12-16T04:50:03.468Z,0
2017-12-16T04:55:03.148Z,0
2017-12-16T05:00:02.673Z,0
2017-12-16T05:05:03.288Z,0
2017-12-16T05:10:02.983Z,1
2017-12-16T05:15:02.616Z,2
2017-12-16T05:20:03.187Z,2
2017-12-16T05:25:02.860Z,1
2017-12-16T05:30:03.507Z,3
2017-12-16T05:35:03.101Z,0
2017-12-16T05:40:03.589Z,0
2017-12-16T05:45:03.142Z,0
2017-12-16T05:50:02.734Z,0
2017-12-16T05:55:03.243Z,1
2017-12-16T06:00:02.844Z,0
2017-12-16T06:05:03.345Z,0
2017-12-16T06:10:03.109Z,1
2017-12-16T06:15:02.780Z,0
2017-12-16T06:20:03.408Z,0
2017-12-16T06:25:02.916Z,1
2017-12-16T06:30:03.462Z,0
2017-12-16T06:35:03.163Z,2
2017-12-16T06:40:03.592Z,0
2017-12-16T06:45:02.997Z,2
2017-12-16T06:50:03.557Z,2
2017-12-16T06:55:03.186Z,0
2017-12-16T07:00:02.749Z,2
2017-12-16T07:05:03.288Z,0
2017-12-16T07:10:02.815Z,1
2017-12-16T07:15:03.539Z,1
2017-12-16T07:20:03.056Z,0
2017-12-16T07:25:03.472Z,2
2017-12-16T07:30:03.280Z,0
2017-12-16T07:35:02.948Z,2
2017-12-16T07:40:03.458Z,2
2017-12-16T07:45:02.965Z,0
2017-12-16T07:50:03.634Z,2
2017-12-16T07:55:03.176Z,0
2017-12-16T08:00:03.558Z,3
2017-12-16T08:05:03.303Z,2
2017-12-16T08:10:02.771Z,0
2017-12-16T08:15:03.238Z,0
2017-12-16T08:20:02.680Z,0
2017-12-16T08:25:03.200Z,2
2017-12-16T08:30:02.800Z,2
2017-12-16T08:35:03.257Z,0
2017-12-16T08:40:02.789Z,2
2017-12-16T08:45:03.263Z,2
2017-12-16T08:50:02.923Z,2
2017-12-16T08:55:03.355Z,2
2017-12-16T09:00:02.762Z,0
2017-12-16T09:05:03.469Z,2
2017-12-16T09:10:03.096Z,0
2017-12-16T09:15:03.584Z,0
2017-12-16T09:20:03.264Z,0
2017-12-16T09:25:02.657Z,0
2017-12-16T09:30:03.168Z,2
2017-12-16T09:35:02.715Z,2
2017-12-16T09:40:03.227Z,0
2017-12-16T09:45:02.938Z,2
2017-12-16T09:50:03.491Z,2
2017-12-16T09:55:02.949Z,2
2017-12-16T10:00:03.523Z,2
2017-12-16T10:05:03.192Z,1
2017-12-16T10:10:02.715Z,2
2017-12-16T10:15:03.340Z,0
2017-12-16T10:20:03.025Z,4
2017-12-16T10:25:02.729Z,2
2017-12-16T10:30:03.306Z,3
2017-12-16T10:35:02.603Z,3
2017-12-16T10:40:03.090Z,0
2017-12-16T10:45:02.655Z,1
2017-12-16T10:50:03.332Z,1
2017-12-16T10:55:02.960Z,2
2017-12-16T11:00:03.503Z,2
2017-12-16T11:05:03.026Z,3
2017-12-16T11:10:03.555Z,2
2017-12-16T11:15:03.090Z,3
2017-12-16T11:20:02.747Z,3
2017-12-16T11:25:03.350Z,4
2017-12-16T11:30:02.782Z,2
2017-12-16T11:35:03.488Z,3
2017-12-16T11:40:03.103Z,3
2017-12-16T11:45:03.530Z,5
2017-12-16T11:50:03.191Z,5
2017-12-16T11:55:02.830Z,3
2017-12-16T12:00:03.260Z,9
2017-12-16T12:05:02.825Z,6
2017-12-16T12:10:03.491Z,6
2017-12-16T12:15:03.014Z,4
2017-12-16T12:20:02.800Z,6
2017-12-16T12:25:03.372Z,6
2017-12-16T12:30:02.838Z,2
2017-12-16T12:35:03.378Z,6
2017-12-16T12:40:03.049Z,4
2017-12-16T12:45:02.650Z,4
2017-12-16T12:50:03.378Z,4
2017-12-16T12:55:03.016Z,3
2017-12-16T13:00:03.474Z,6
2017-12-16T13:10:03.510Z,5
2017-12-16T13:15:02.935Z,4
2017-12-16T13:20:03.499Z,2
2017-12-16T13:25:02.951Z,4
2017-12-16T13:30:03.602Z,5
2017-12-16T13:35:03.264Z,5
2017-12-16T13:40:02.877Z,5
2017-12-16T13:45:03.416Z,5
2017-12-16T13:50:03.063Z,6
2017-12-16T13:55:03.574Z,5
2017-12-16T14:00:03.077Z,6
2017-12-16T14:05:02.593Z,2
2017-12-16T14:10:03.362Z,4
2017-12-16T14:15:02.794Z,3
2017-12-16T14:20:03.350Z,7
2017-12-16T14:25:02.910Z,3
2017-12-16T14:30:03.552Z,3
2017-12-16T14:35:03.267Z,7
2017-12-16T14:40:03.002Z,6
2017-12-16T14:45:02.690Z,4
2017-12-16T14:50:03.146Z,4
2017-12-16T14:55:03.600Z,1
2017-12-16T15:00:03.093Z,6
2017-12-16T15:05:02.617Z,3
2017-12-16T15:10:03.243Z,3
2017-12-16T15:15:02.924Z,4
2017-12-16T15:20:03.601Z,3
2017-12-16T15:25:03.145Z,3
2017-12-16T15:30:02.801Z,4
2017-12-16T15:35:03.321Z,3
2017-12-16T15:40:03.077Z,5
2017-12-16T15:45:02.857Z,2
2017-12-16T15:50:03.404Z,1
2017-12-16T15:55:02.832Z,4
2017-12-16T16:00:03.423Z,4
2017-12-16T16:05:03.095Z,3
2017-12-16T16:10:02.999Z,3
2017-12-16T16:15:03.604Z,3
2017-12-16T16:20:03.268Z,7
2017-12-16T16:25:02.940Z,6
2017-12-16T16:30:02.610Z,3
2017-12-16T16:35:03.213Z,4
2017-12-16T16:40:02.794Z,4
2017-12-16T16:45:03.295Z,4
2017-12-16T16:50:02.785Z,3
2017-12-16T16:55:03.267Z,4
2017-12-16T17:00:02.688Z,4
2017-12-16T17:05:03.445Z,2
2017-12-16T17:10:03.129Z,3
2017-12-16T17:15:02.872Z,3
2017-12-16T17:20:03.570Z,2
2017-12-16T17:25:03.230Z,4
2017-12-16T17:30:02.815Z,3
2017-12-16T17:35:03.460Z,4
2017-12-16T17:40:03.150Z,5
2017-12-16T17:45:03.538Z,3
2017-12-16T17:50:03.025Z,2
2017-12-16T17:55:03.493Z,1
2017-12-16T18:00:03.149Z,5
2017-12-16T18:05:02.689Z,6
2017-12-16T18:10:03.280Z,4
2017-12-16T18:15:02.938Z,3
2017-12-16T18:20:03.450Z,2
2017-12-16T18:25:02.887Z,5
2017-12-16T18:30:03.418Z,6
2017-12-16T18:35:02.856Z,6
2017-12-16T18:40:03.350Z,5
2017-12-16T18:45:02.787Z,4
2017-12-16T18:50:03.557Z,7
2017-12-16T18:55:03.099Z,5
2017-12-16T19:00:03.573Z,6
2017-12-16T19:05:03.116Z,3
2017-12-16T19:10:03.598Z,4
2017-12-16T19:15:03.269Z,4
2017-12-16T19:20:02.904Z,3
2017-12-16T19:25:02.669Z,3
2017-12-16T19:30:03.292Z,5
2017-12-16T19:35:02.826Z,4
2017-12-16T19:40:03.336Z,5
2017-12-16T19:45:02.855Z,5
2017-12-16T19:50:03.418Z,0
2017-12-16T19:55:02.942Z,3
2017-12-16T20:00:03.443Z,4
2017-12-16T20:05:02.839Z,2
2017-12-16T20:10:03.566Z,3
2017-12-16T20:15:03.221Z,5
2017-12-16T20:20:02.978Z,3
2017-12-16T20:25:03.397Z,3
2017-12-16T20:30:02.870Z,2
2017-12-16T20:35:03.429Z,2
2017-12-16T20:40:03.040Z,3
2017-12-16T20:45:02.670Z,2
2017-12-16T20:50:03.436Z,4
2017-12-16T20:55:03.062Z,4
2017-12-16T21:00:02.708Z,2
2017-12-16T21:05:03.186Z,4
2017-12-16T21:10:02.973Z,2
2017-12-16T21:15:03.556Z,3
2017-12-16T21:20:03.180Z,2
2017-12-16T21:25:02.887Z,2
2017-12-16T21:30:03.331Z,2
2017-12-16T21:35:02.932Z,4
2017-12-16T21:40:03.561Z,4
2017-12-16T21:45:03.100Z,5
2017-12-16T21:50:02.685Z,2
2017-12-16T21:55:03.142Z,0
2017-12-16T22:00:03.841Z,5
2017-12-16T22:05:03.402Z,3
2017-12-16T22:10:02.936Z,3
2017-12-16T22:15:03.514Z,3
2017-12-16T22:20:03.187Z,2
2017-12-16T22:25:03.627Z,4
2017-12-16T22:30:03.443Z,3
2017-12-16T22:35:03.201Z,4
2017-12-16T22:40:02.685Z,5
2017-12-16T22:45:03.245Z,2
2017-12-16T22:50:02.715Z,3
2017-12-16T22:55:03.181Z,5
2017-12-16T23:00:02.778Z,4
2017-12-16T23:05:03.243Z,3
2017-12-16T23:10:03.020Z,6
2017-12-16T23:15:03.450Z,0
2017-12-16T23:20:03.130Z,3
2017-12-16T23:25:03.555Z,1
2017-12-16T23:30:03.380Z,3
2017-12-16T23:35:03.097Z,3
2017-12-16T23:40:02.713Z,5
2017-12-16T23:45:03.192Z,2
2017-12-16T23:50:02.878Z,3
2017-12-16T23:55:03.487Z,5
